Time;durP1;ratioP1;P1;durP2;ratioP2;P2;SDS_P1;SDS_P2;PMS_P1;PMS_P2;Temp;Humidity;BMP_temperature;BMP_pressure;BME280_temperature;BME280_humidity;BME280_pressure;Samples;Min_cycle;Max_cycle;Signal;HPM_P1;HPM_P2
2021/12/07 00:00:12;;;;;;;14.30;9.17;;;-1.00;99.90;;;;;;4989171;28;20039;-80
2021/12/07 00:02:38;;;;;;;11.85;7.30;;;-0.90;99.90;;;;;;4989217;28;20023;-80
2021/12/07 00:05:04;;;;;;;15.40;9.30;;;-0.90;99.90;;;;;;4987871;28;20171;-81
2021/12/07 00:07:30;;;;;;;14.63;9.10;;;-0.90;99.90;;;;;;4989106;28;20038;-80
2021/12/07 00:09:56;;;;;;;13.07;8.93;;;-0.90;99.90;;;;;;4989051;28;20018;-80
2021/12/07 00:12:22;;;;;;;14.67;9.90;;;-0.90;99.90;;;;;;4988984;28;20382;-80
2021/12/07 00:14:48;;;;;;;14.17;9.77;;;-0.90;99.90;;;;;;4989154;28;20030;-81
2021/12/07 00:17:13;;;;;;;14.23;8.83;;;-0.90;99.90;;;;;;4988983;28;20092;-81
2021/12/07 00:19:39;;;;;;;14.33;10.33;;;-0.90;99.90;;;;;;4989123;28;20066;-80
2021/12/07 00:22:08;;;;;;;13.23;9.07;;;-0.90;99.90;;;;;;4987734;28;20033;-81
2021/12/07 00:24:33;;;;;;;14.57;9.67;;;-0.90;99.90;;;;;;4987411;28;20030;-81
2021/12/07 00:27:01;;;;;;;13.97;9.70;;;-0.90;99.90;;;;;;4987847;28;20071;-80
2021/12/07 00:29:30;;;;;;;14.10;10.40;;;-0.80;99.90;;;;;;4988996;28;20033;-81
2021/12/07 00:32:17;;;;;;;14.07;10.00;;;-0.80;99.90;;;;;;4988641;28;20019;-80
2021/12/07 00:35:01;;;;;;;15.30;9.37;;;-0.80;99.90;;;;;;4988642;28;20112;-80
2021/12/07 00:37:34;;;;;;;14.77;9.37;;;-0.80;99.90;;;;;;4988751;28;20119;-81
2021/12/07 00:40:08;;;;;;;13.90;9.00;;;-0.80;99.90;;;;;;4988739;28;20026;-81
2021/12/07 00:42:33;;;;;;;15.63;9.20;;;-0.80;99.90;;;;;;4988624;28;20374;-81
2021/12/07 00:45:00;;;;;;;15.57;9.80;;;-0.80;99.90;;;;;;4988644;28;20035;-80
2021/12/07 00:47:25;;;;;;;14.70;9.53;;;-0.80;99.90;;;;;;4987274;28;20069;-80
2021/12/07 00:49:51;;;;;;;14.03;9.37;;;-0.70;99.90;;;;;;4988515;28;20034;-80
2021/12/07 00:52:17;;;;;;;14.63;8.70;;;-0.70;99.90;;;;;;4988643;28;20105;-80
2021/12/07 00:54:43;;;;;;;14.10;8.97;;;-0.70;99.90;;;;;;4989366;28;20023;-78
2021/12/07 00:57:09;;;;;;;13.23;9.50;;;-0.70;99.90;;;;;;4989767;28;20394;-78
2021/12/07 00:59:34;;;;;;;15.13;9.87;;;-0.70;99.90;;;;;;4990794;28;20050;-77
2021/12/07 01:02:01;;;;;;;12.50;8.67;;;-0.70;99.90;;;;;;4990951;28;20463;-78
2021/12/07 01:04:28;;;;;;;14.60;9.37;;;-0.70;99.90;;;;;;4991072;28;20025;-78
2021/12/07 01:25:39;;;;;;;12.53;9.17;;;-0.70;99.90;;;;;;4990973;28;20084;-78
2021/12/07 01:28:31;;;;;;;12.77;8.63;;;-0.70;99.90;;;;;;4990641;28;20030;-78
2021/12/07 01:31:06;;;;;;;11.37;7.90;;;-0.70;99.90;;;;;;4990750;28;20057;-78
2021/12/07 01:39:27;;;;;;;11.67;8.07;;;-0.70;99.90;;;;;;4990771;28;20037;-78
2021/12/07 01:41:46;;;;;;;11.43;7.53;;;-0.70;99.90;;;;;;4990396;28;20042;-78
2021/12/07 01:47:40;;;;;;;11.27;7.40;;;-0.60;99.90;;;;;;4968897;28;20168;-78
2021/12/07 01:53:11;;;;;;;9.83;6.30;;;-0.60;99.90;;;;;;4990639;28;20042;-78
2021/12/07 02:00:50;;;;;;;8.27;6.30;;;-0.40;99.90;;;;;;4993157;28;20055;-78
2021/12/07 02:03:15;;;;;;;9.17;6.30;;;-0.50;99.90;;;;;;4993727;28;20092;-78
2021/12/07 02:05:41;;;;;;;8.53;5.73;;;-0.40;99.90;;;;;;4993622;28;20035;-78
2021/12/07 02:08:07;;;;;;;11.43;6.03;;;-0.40;99.90;;;;;;4993898;28;20105;-78
2021/12/07 02:10:33;;;;;;;9.60;6.47;;;-0.30;99.90;;;;;;4992309;28;20497;-78
2021/12/07 02:13:06;;;;;;;8.47;6.13;;;-0.30;99.90;;;;;;4993596;28;20073;-78
2021/12/07 02:15:33;;;;;;;6.77;5.20;;;-0.30;99.90;;;;;;4992207;28;20030;-78
2021/12/07 02:18:00;;;;;;;7.53;5.20;;;-0.30;99.90;;;;;;4993541;28;20101;-78
2021/12/07 02:20:29;;;;;;;8.30;5.37;;;-0.30;99.90;;;;;;4993115;28;20345;-78
2021/12/07 02:22:55;;;;;;;7.27;4.77;;;-0.20;99.90;;;;;;4993083;28;20036;-78
2021/12/07 02:25:21;;;;;;;7.50;4.87;;;-0.20;99.90;;;;;;4993548;28;20026;-78
2021/12/07 02:27:48;;;;;;;9.23;5.33;;;-0.20;99.90;;;;;;4993488;28;20042;-78
2021/12/07 02:30:18;;;;;;;6.77;4.57;;;-0.20;99.90;;;;;;4993206;28;20105;-78
2021/12/07 02:32:44;;;;;;;6.70;4.20;;;-0.20;99.90;;;;;;4993110;28;20035;-78
2021/12/07 02:35:12;;;;;;;6.90;4.73;;;-0.20;99.90;;;;;;4993274;28;20034;-78
2021/12/07 02:37:38;;;;;;;6.73;4.17;;;-0.20;99.90;;;;;;4993059;28;20387;-78
2021/12/07 02:40:07;;;;;;;5.17;3.17;;;-0.10;99.90;;;;;;4993179;28;20031;-78
2021/12/07 02:42:33;;;;;;;4.13;3.20;;;-0.10;99.90;;;;;;4993056;28;20471;-78
2021/12/07 02:44:58;;;;;;;5.17;3.70;;;-0.10;99.90;;;;;;4991737;28;20073;-78
2021/12/07 02:47:24;;;;;;;4.30;3.17;;;-0.10;99.90;;;;;;4991648;28;20030;-78
2021/12/07 02:49:50;;;;;;;4.63;3.33;;;-0.10;99.90;;;;;;4992974;28;20065;-78
2021/12/07 02:52:17;;;;;;;4.70;3.10;;;0.00;99.90;;;;;;4991644;28;20027;-78
2021/12/07 02:54:45;;;;;;;5.20;3.20;;;0.00;99.90;;;;;;4992752;28;20451;-78
2021/12/07 02:57:13;;;;;;;4.73;3.27;;;0.00;99.90;;;;;;4992885;28;20152;-78
2021/12/07 02:59:46;;;;;;;3.83;2.53;;;0.00;99.90;;;;;;4992662;28;20392;-78
2021/12/07 03:02:14;;;;;;;4.90;2.90;;;0.10;99.90;;;;;;4992955;28;20037;-78
2021/12/07 03:04:50;;;;;;;3.93;2.80;;;0.10;99.90;;;;;;4992878;28;20026;-78
2021/12/07 03:07:26;;;;;;;6.37;2.90;;;0.10;99.90;;;;;;4992765;28;20027;-78
2021/12/07 03:25:50;;;;;;;3.00;2.30;;;0.20;99.90;;;;;;4992578;28;20491;-78
2021/12/07 03:26:25;;;;;;;5.23;2.43;;;0.60;99.90;;;;;;4993038;28;20415;-78
2021/12/07 03:28:54;;;;;;;4.70;3.20;;;0.50;99.90;;;;;;4992402;28;20129;-78
2021/12/07 03:31:20;;;;;;;3.77;2.90;;;0.40;99.90;;;;;;4992243;28;20041;-78
2021/12/07 03:33:46;;;;;;;4.43;3.07;;;0.30;99.90;;;;;;4992039;28;20455;-78
2021/12/07 03:36:13;;;;;;;5.10;3.20;;;0.30;99.90;;;;;;4992116;28;20076;-78
2021/12/07 03:38:40;;;;;;;4.03;3.00;;;0.30;99.90;;;;;;4992005;28;20026;-78
2021/12/07 03:41:06;;;;;;;6.07;3.80;;;0.20;99.90;;;;;;4991978;28;20026;-78
2021/12/07 03:43:32;;;;;;;6.17;3.67;;;0.10;99.90;;;;;;4991892;28;20129;-78
2021/12/07 03:45:59;;;;;;;5.17;3.20;;;0.10;99.90;;;;;;4991622;28;20058;-79
2021/12/07 03:48:25;;;;;;;6.30;3.50;;;0.00;99.90;;;;;;4991531;28;20026;-78
2021/12/07 03:50:50;;;;;;;7.27;3.90;;;0.00;99.90;;;;;;4991708;28;20042;-78
2021/12/07 03:53:16;;;;;;;6.47;3.30;;;-0.10;99.90;;;;;;4991891;28;20120;-78
2021/12/07 03:55:42;;;;;;;7.17;3.77;;;-0.10;99.90;;;;;;4990474;28;20030;-78
2021/12/07 03:58:08;;;;;;;6.93;3.27;;;-0.10;99.90;;;;;;4991782;28;20097;-78
2021/12/07 04:00:37;;;;;;;4.63;3.50;;;-0.10;99.90;;;;;;4990633;28;20529;-76
2021/12/07 04:03:07;;;;;;;4.63;3.40;;;-0.10;99.90;;;;;;4989001;28;20034;-76
2021/12/07 04:05:36;;;;;;;6.47;3.50;;;-0.20;99.90;;;;;;4987764;28;20057;-76
2021/12/07 04:08:02;;;;;;;6.13;3.20;;;-0.10;99.90;;;;;;4989115;28;20037;-76
2021/12/07 04:10:27;;;;;;;5.37;3.23;;;-0.20;99.90;;;;;;4989019;28;20034;-76
2021/12/07 04:12:53;;;;;;;4.00;3.10;;;-0.20;99.90;;;;;;4988983;28;20467;-76
2021/12/07 04:15:19;;;;;;;5.00;3.00;;;-0.10;99.90;;;;;;4987575;28;20038;-76
2021/12/07 04:17:46;;;;;;;4.33;3.00;;;-0.10;99.90;;;;;;4989061;28;20360;-76
2021/12/07 04:20:14;;;;;;;4.33;3.10;;;-0.10;99.90;;;;;;4988973;28;20472;-76
2021/12/07 04:22:40;;;;;;;3.97;2.70;;;-0.10;99.90;;;;;;4987227;28;20044;-81
2021/12/07 04:25:10;;;;;;;4.30;2.90;;;-0.10;99.90;;;;;;4988944;28;20434;-81
2021/12/07 04:27:38;;;;;;;3.63;2.80;;;0.00;99.90;;;;;;4987610;28;20030;-80
2021/12/07 04:30:07;;;;;;;3.87;2.83;;;0.00;99.90;;;;;;4988734;28;20030;-81
2021/12/07 04:32:33;;;;;;;3.53;2.50;;;0.00;99.90;;;;;;4988798;28;20393;-81
2021/12/07 04:34:58;;;;;;;2.90;2.47;;;0.00;99.90;;;;;;4988807;28;20030;-81
2021/12/07 04:37:24;;;;;;;4.00;2.70;;;0.10;99.90;;;;;;4990142;28;20029;-76
2021/12/07 04:39:50;;;;;;;3.10;2.20;;;0.20;99.90;;;;;;4989835;28;20080;-76
2021/12/07 04:42:15;;;;;;;3.60;2.40;;;0.30;99.90;;;;;;4991145;28;20109;-76
2021/12/07 04:44:49;;;;;;;3.03;2.00;;;0.30;99.90;;;;;;4991017;28;20026;-76
2021/12/07 04:47:22;;;;;;;4.70;2.23;;;0.30;99.90;;;;;;4991432;28;20023;-76
2021/12/07 04:57:57;;;;;;;3.13;1.70;;;0.60;99.90;;;;;;4990750;28;20167;-76
2021/12/07 05:00:25;;;;;;;3.17;1.70;;;0.60;99.90;;;;;;4990602;28;20429;-79
2021/12/07 05:03:02;;;;;;;2.10;1.60;;;0.70;99.90;;;;;;4990611;28;20026;-79
2021/12/07 05:05:33;;;;;;;3.03;1.93;;;0.60;99.90;;;;;;4990677;28;20060;-79
2021/12/07 05:08:02;;;;;;;3.90;2.00;;;0.60;99.90;;;;;;4990489;28;20033;-79
2021/12/07 05:13:51;;;;;;;3.20;1.77;;;0.70;99.90;;;;;;4990357;28;20065;-79
2021/12/07 05:37:47;;;;;;;2.20;1.53;;;0.80;99.90;;;;;;5014978;28;20026;-75
2021/12/07 05:40:23;;;;;;;2.10;1.60;;;0.90;99.90;;;;;;4958368;28;20118;-75
2021/12/07 05:42:50;;;;;;;3.33;1.77;;;0.90;99.90;;;;;;4963006;28;20023;-75
2021/12/07 05:45:19;;;;;;;1.90;1.50;;;0.90;99.90;;;;;;4974432;28;20034;-75
2021/12/07 05:47:45;;;;;;;2.27;1.50;;;0.90;99.90;;;;;;4973431;28;20091;-75
2021/12/07 05:50:16;;;;;;;2.53;1.60;;;1.00;99.90;;;;;;4974394;28;20019;-76
2021/12/07 05:52:42;;;;;;;3.60;1.70;;;1.00;99.90;;;;;;4973752;28;20031;-80
2021/12/07 05:55:09;;;;;;;1.77;1.40;;;0.90;99.90;;;;;;4972678;28;20071;-75
2021/12/07 05:57:35;;;;;;;2.30;1.70;;;1.00;99.90;;;;;;4969693;28;20023;-81
2021/12/07 06:00:01;;;;;;;2.70;2.00;;;1.10;99.90;;;;;;4972160;28;20047;-76
2021/12/07 06:02:27;;;;;;;3.57;2.00;;;1.10;99.90;;;;;;4970907;28;20037;-80
2021/12/07 06:04:53;;;;;;;2.00;1.43;;;1.10;99.90;;;;;;4969021;28;20466;-80
2021/12/07 06:07:18;;;;;;;2.03;1.57;;;1.10;99.90;;;;;;4971308;28;20081;-80
2021/12/07 06:09:44;;;;;;;3.10;1.67;;;1.10;99.90;;;;;;4972114;28;20019;-80
2021/12/07 06:12:10;;;;;;;2.03;1.67;;;1.10;99.90;;;;;;4968924;28;20475;-80
2021/12/07 06:14:42;;;;;;;2.60;1.90;;;1.00;99.90;;;;;;4969101;28;20447;-80
2021/12/07 06:17:07;;;;;;;2.30;1.70;;;0.90;99.90;;;;;;4973284;28;20018;-75
2021/12/07 06:19:33;;;;;;;2.77;1.80;;;0.90;99.90;;;;;;4974073;28;20102;-74
2021/12/07 06:21:59;;;;;;;2.27;1.60;;;0.90;99.90;;;;;;4974045;28;20069;-74
2021/12/07 06:24:24;;;;;;;1.97;1.63;;;0.90;99.90;;;;;;4974137;28;20035;-74
2021/12/07 06:26:50;;;;;;;3.93;2.17;;;1.00;99.90;;;;;;4973400;28;20027;-79
2021/12/07 06:29:15;;;;;;;4.37;1.87;;;1.00;99.90;;;;;;4973270;28;20019;-75
2021/12/07 06:31:42;;;;;;;3.80;1.80;;;1.00;99.90;;;;;;4987858;28;20656;-76
2021/12/07 06:34:10;;;;;;;2.70;1.70;;;1.20;99.90;;;;;;4973872;28;20031;-76
2021/12/07 06:36:37;;;;;;;4.13;1.80;;;1.20;99.90;;;;;;4973800;28;20019;-75
2021/12/07 06:39:07;;;;;;;3.93;1.97;;;1.20;99.90;;;;;;4973463;28;20022;-76
2021/12/07 06:41:33;;;;;;;3.40;1.93;;;1.20;99.90;;;;;;4971419;28;20478;-76
2021/12/07 06:43:59;;;;;;;2.63;1.87;;;1.30;99.90;;;;;;4971767;28;20106;-76
2021/12/07 06:46:25;;;;;;;2.17;1.93;;;1.30;99.90;;;;;;4974329;28;20311;-81
2021/12/07 06:48:50;;;;;;;4.17;1.73;;;1.40;99.90;;;;;;4972688;28;20462;-80
2021/12/07 06:51:16;;;;;;;2.23;1.90;;;1.40;99.90;;;;;;4972511;28;20089;-81
2021/12/07 06:53:42;;;;;;;3.30;2.10;;;1.40;99.90;;;;;;4970860;28;20042;-82
2021/12/07 06:56:09;;;;;;;2.37;2.00;;;1.40;99.90;;;;;;4970817;28;20027;-82
2021/12/07 06:58:35;;;;;;;3.07;2.00;;;1.40;99.90;;;;;;4971066;28;20516;-81
2021/12/07 07:01:06;;;;;;;3.63;1.80;;;1.40;99.90;;;;;;4970920;28;20429;-81
2021/12/07 07:03:35;;;;;;;3.03;2.03;;;1.40;99.90;;;;;;4971113;28;20034;-81
2021/12/07 07:06:02;;;;;;;3.60;2.00;;;1.50;99.90;;;;;;4970915;28;20031;-76
2021/12/07 07:08:27;;;;;;;2.23;1.80;;;1.60;99.90;;;;;;4973100;28;20493;-76
2021/12/07 07:10:53;;;;;;;4.20;2.20;;;1.60;99.90;;;;;;4972931;28;20030;-76
2021/12/07 07:13:18;;;;;;;4.03;2.00;;;1.60;99.90;;;;;;4969561;28;20388;-75
2021/12/07 07:15:44;;;;;;;4.10;2.03;;;1.50;99.90;;;;;;4977748;28;20466;-76
2021/12/07 07:18:10;;;;;;;4.97;2.23;;;1.60;99.90;;;;;;4971866;28;20209;-76
2021/12/07 07:20:36;;;;;;;4.03;2.50;;;1.60;99.90;;;;;;4967764;28;20015;-76
2021/12/07 07:23:02;;;;;;;2.00;1.80;;;1.70;99.90;;;;;;4969111;28;20073;-76
2021/12/07 07:25:28;;;;;;;4.37;2.00;;;1.70;99.90;;;;;;4971444;28;20045;-76
2021/12/07 07:27:53;;;;;;;3.23;1.97;;;1.80;99.90;;;;;;4960316;28;20102;-76
2021/12/07 07:30:20;;;;;;;3.87;2.63;;;1.80;99.90;;;;;;4969716;28;20057;-76
2021/12/07 07:32:46;;;;;;;3.47;2.17;;;1.70;99.90;;;;;;4966269;28;20455;-76
2021/12/07 07:35:13;;;;;;;2.60;1.90;;;1.80;99.90;;;;;;4968276;28;20432;-76
2021/12/07 07:37:39;;;;;;;2.73;1.80;;;1.80;99.90;;;;;;4968314;28;20046;-76
2021/12/07 07:40:07;;;;;;;5.93;1.90;;;1.80;99.90;;;;;;4968550;28;20026;-76
2021/12/07 07:42:33;;;;;;;3.03;1.90;;;1.80;99.90;;;;;;4967681;28;20497;-76
2021/12/07 07:44:59;;;;;;;3.00;2.40;;;1.80;99.90;;;;;;4968888;28;20038;-76
2021/12/07 07:47:24;;;;;;;5.80;2.10;;;1.80;99.90;;;;;;4968184;28;20061;-76
2021/12/07 07:49:50;;;;;;;4.20;2.60;;;1.80;99.90;;;;;;4969074;28;20114;-76
2021/12/07 07:52:16;;;;;;;3.67;2.40;;;1.80;99.90;;;;;;4966922;28;20340;-75
2021/12/07 07:54:42;;;;;;;3.23;2.20;;;1.70;99.90;;;;;;4968285;28;20042;-75
2021/12/07 07:57:07;;;;;;;3.27;2.53;;;1.70;99.90;;;;;;4965576;28;20030;-75
2021/12/07 07:59:33;;;;;;;3.67;1.90;;;1.70;99.90;;;;;;4966843;28;20054;-75
2021/12/07 08:01:59;;;;;;;5.07;2.13;;;1.70;99.90;;;;;;4969129;28;20027;-76
2021/12/07 08:04:24;;;;;;;3.17;2.00;;;1.60;99.90;;;;;;4967433;28;20027;-76
2021/12/07 08:06:50;;;;;;;3.63;2.30;;;1.60;99.90;;;;;;4969066;28;20035;-75
2021/12/07 08:09:16;;;;;;;4.30;1.90;;;1.60;99.90;;;;;;4969608;28;20031;-75
2021/12/07 08:11:41;;;;;;;3.57;1.97;;;1.70;99.90;;;;;;4969631;28;20508;-76
2021/12/07 08:14:07;;;;;;;3.57;2.47;;;1.70;99.90;;;;;;4969594;28;20077;-75
2021/12/07 08:16:33;;;;;;;5.83;2.30;;;1.70;99.90;;;;;;4969526;28;20042;-75
2021/12/07 08:18:59;;;;;;;4.87;2.20;;;1.70;99.90;;;;;;5039582;28;20036;-75
2021/12/07 08:21:24;;;;;;;4.23;2.10;;;1.70;99.90;;;;;;5073847;28;20157;-77
2021/12/07 08:23:50;;;;;;;3.67;2.17;;;1.70;99.90;;;;;;5073653;28;20028;-77
2021/12/07 08:26:19;;;;;;;2.90;2.27;;;1.80;99.90;;;;;;5073470;28;20028;-74
2021/12/07 08:28:45;;;;;;;4.20;2.40;;;1.80;99.90;;;;;;5072320;28;20032;-74
2021/12/07 08:31:10;;;;;;;4.10;1.97;;;1.90;99.90;;;;;;5073500;28;20024;-75
2021/12/07 08:33:36;;;;;;;4.63;2.83;;;1.90;99.90;;;;;;4989858;28;20088;-76
2021/12/07 08:36:03;;;;;;;4.83;2.60;;;1.90;99.90;;;;;;4988450;28;20031;-76
2021/12/07 08:38:29;;;;;;;5.40;2.50;;;1.90;99.90;;;;;;4987914;28;20030;-76
2021/12/07 08:40:56;;;;;;;4.30;2.40;;;1.90;99.90;;;;;;4985590;28;20042;-77
2021/12/07 08:43:24;;;;;;;3.30;2.50;;;1.90;99.90;;;;;;4982058;28;20034;-77
2021/12/07 08:45:51;;;;;;;3.13;2.57;;;1.80;99.90;;;;;;4985866;28;20043;-80
2021/12/07 08:48:18;;;;;;;4.70;2.67;;;1.90;99.90;;;;;;4986878;28;20052;-80
2021/12/07 08:50:45;;;;;;;3.13;2.43;;;1.90;99.90;;;;;;4987574;28;20046;-80
2021/12/07 08:53:14;;;;;;;4.03;2.40;;;1.90;99.90;;;;;;4986974;28;20027;-79
2021/12/07 09:01:12;;;;;;;4.28;2.50;;;2.00;99.90;;;;;;4981782;28;20061;-77
2021/12/07 09:03:37;;;;;;;4.47;2.50;;;2.20;99.90;;;;;;4985861;28;20443;-80
2021/12/07 09:06:03;;;;;;;5.13;2.13;;;2.20;99.90;;;;;;5008834;22;20050;-75
2021/12/07 09:08:29;;;;;;;3.73;2.73;;;2.10;99.90;;;;;;5041288;28;20127;-75
2021/12/07 09:10:55;;;;;;;4.27;2.07;;;2.10;99.90;;;;;;5021753;28;20094;-75
2021/12/07 09:13:23;;;;;;;3.97;2.30;;;2.10;99.90;;;;;;5022152;28;20021;-75
2021/12/07 09:15:49;;;;;;;7.33;2.90;;;2.20;99.90;;;;;;5026186;28;20018;-79
2021/12/07 09:18:14;;;;;;;3.87;2.50;;;2.10;99.90;;;;;;5020923;28;20373;-79
2021/12/07 09:20:40;;;;;;;5.30;2.60;;;2.00;99.90;;;;;;5022435;28;20031;-79
2021/12/07 09:23:06;;;;;;;3.73;2.57;;;2.00;99.90;;;;;;5022406;28;20077;-79
2021/12/07 09:25:32;;;;;;;4.93;2.33;;;2.00;99.90;;;;;;5021751;28;20044;-79
2021/12/07 09:27:57;;;;;;;7.03;2.60;;;2.00;99.90;;;;;;5047252;28;20781;-79
2021/12/07 09:30:23;;;;;;;7.27;2.90;;;2.10;99.90;;;;;;5022536;28;20117;-79
2021/12/07 09:32:50;;;;;;;4.17;2.40;;;2.20;99.90;;;;;;5023883;28;20081;-76
2021/12/07 09:35:16;;;;;;;4.37;2.20;;;2.30;99.90;;;;;;5022708;28;20055;-75
2021/12/07 09:37:42;;;;;;;4.00;2.30;;;2.40;99.90;;;;;;5021248;28;20025;-78
2021/12/07 09:40:11;;;;;;;4.53;2.40;;;2.50;99.90;;;;;;4994353;28;20048;-75
2021/12/07 09:42:38;;;;;;;4.20;2.30;;;2.60;99.90;;;;;;5014062;28;20105;-74
2021/12/07 09:45:07;;;;;;;4.63;2.37;;;2.60;99.90;;;;;;5004839;28;20080;-74
2021/12/07 09:47:33;;;;;;;7.23;2.50;;;2.60;99.90;;;;;;5008017;28;20386;-74
2021/12/07 09:49:58;;;;;;;6.63;2.80;;;2.60;99.90;;;;;;5005815;28;20031;-78
2021/12/07 09:52:25;;;;;;;3.60;2.17;;;2.60;99.90;;;;;;5012782;28;20056;-78
2021/12/07 09:54:51;;;;;;;3.57;2.37;;;2.70;99.90;;;;;;5008519;28;20020;-78
2021/12/07 09:57:17;;;;;;;3.30;2.30;;;2.80;99.90;;;;;;5010150;28;20034;-78
2021/12/07 09:59:43;;;;;;;6.07;2.10;;;2.90;99.90;;;;;;5009397;28;20747;-78
2021/12/07 10:02:08;;;;;;;4.47;2.20;;;3.20;99.90;;;;;;5005254;28;20024;-78
2021/12/07 10:04:34;;;;;;;4.27;2.07;;;3.30;99.90;;;;;;5041739;28;20039;-78
2021/12/07 10:07:01;;;;;;;3.83;2.37;;;3.40;99.90;;;;;;5005035;28;20044;-75
2021/12/07 10:09:26;;;;;;;4.03;2.20;;;3.40;99.90;;;;;;5013025;28;20042;-75
2021/12/07 10:11:53;;;;;;;9.73;3.80;;;3.40;99.90;;;;;;5009598;28;20026;-75
2021/12/07 10:14:20;;;;;;;5.27;2.10;;;3.30;99.90;;;;;;5014550;28;20053;-76
2021/12/07 10:16:48;;;;;;;3.67;2.00;;;3.30;99.90;;;;;;5045077;28;20722;-75
2021/12/07 10:19:28;;;;;;;5.57;2.00;;;3.40;99.90;;;;;;5014403;28;20061;-76
2021/12/07 10:22:21;;;;;;;3.80;2.10;;;3.30;99.90;;;;;;5019859;28;20083;-77
2021/12/07 10:24:55;;;;;;;3.70;2.63;;;3.40;99.90;;;;;;5042613;28;20417;-77
2021/12/07 10:27:36;;;;;;;5.30;2.30;;;3.40;99.90;;;;;;5010099;28;20029;-77
2021/12/07 10:30:06;;;;;;;3.77;2.10;;;3.30;99.90;;;;;;5011447;28;20042;-77
2021/12/07 10:32:32;;;;;;;3.80;2.20;;;3.40;99.90;;;;;;5020745;28;20056;-77
2021/12/07 10:34:57;;;;;;;3.00;1.87;;;3.40;99.90;;;;;;5020729;28;20703;-77
2021/12/07 10:37:23;;;;;;;4.90;2.30;;;3.40;99.90;;;;;;5019691;28;20803;-79
2021/12/07 10:39:51;;;;;;;3.50;2.10;;;3.30;99.90;;;;;;5017793;28;20115;-78
2021/12/07 10:42:25;;;;;;;4.90;2.30;;;3.30;99.90;;;;;;5018258;28;20046;-78
2021/12/07 10:44:51;;;;;;;5.37;2.40;;;3.30;99.90;;;;;;5011410;28;20030;-79
2021/12/07 10:47:22;;;;;;;7.37;2.70;;;3.50;99.90;;;;;;5010634;28;20064;-78
2021/12/07 10:49:52;;;;;;;3.00;1.90;;;3.70;99.90;;;;;;5012301;28;20029;-78
2021/12/07 10:52:32;;;;;;;5.07;2.73;;;3.90;99.90;;;;;;5014855;28;20033;-78
2021/12/07 10:55:21;;;;;;;4.00;2.37;;;4.10;99.90;;;;;;5008662;28;20050;-74
2021/12/07 10:57:59;;;;;;;5.13;2.33;;;4.20;99.90;;;;;;5010494;28;20042;-74
2021/12/07 11:00:29;;;;;;;2.70;1.90;;;4.20;99.90;;;;;;4996911;28;20015;-74
2021/12/07 11:03:10;;;;;;;3.07;1.77;;;4.30;99.90;;;;;;5014444;28;20336;-74
2021/12/07 11:05:50;;;;;;;4.40;2.00;;;4.20;99.90;;;;;;5024114;28;20065;-78
2021/12/07 11:08:19;;;;;;;2.93;1.90;;;4.20;99.90;;;;;;5020580;28;20476;-78
2021/12/07 11:10:48;;;;;;;4.43;1.80;;;4.20;99.90;;;;;;5017323;28;20034;-78
2021/12/07 11:13:22;;;;;;;2.90;1.60;;;4.20;99.90;;;;;;5023314;28;20052;-78
2021/12/07 11:15:55;;;;;;;5.60;2.50;;;4.10;99.90;;;;;;5020716;28;20093;-78
2021/12/07 11:18:22;;;;;;;4.43;2.10;;;4.10;99.90;;;;;;5017982;28;20026;-78
2021/12/07 11:20:48;;;;;;;4.83;2.40;;;4.00;99.90;;;;;;5025546;28;20028;-78
2021/12/07 11:23:18;;;;;;;3.27;1.83;;;4.00;99.90;;;;;;5053767;28;20036;-78
2021/12/07 11:31:14;;;;;;;6.20;2.20;;;3.90;99.90;;;;;;5024383;28;20527;-78
2021/12/07 11:33:44;;;;;;;4.40;1.83;;;3.90;99.90;;;;;;5057631;28;20554;-82
2021/12/07 11:36:26;;;;;;;5.30;2.00;;;3.90;99.90;;;;;;5075530;28;20040;-80
2021/12/07 11:38:54;;;;;;;4.17;1.90;;;3.90;99.90;;;;;;5074882;28;20075;-79
2021/12/07 11:41:25;;;;;;;6.00;2.60;;;3.80;99.90;;;;;;5074745;28;20035;-79
2021/12/07 11:43:58;;;;;;;5.70;1.97;;;3.80;99.90;;;;;;5075086;28;20032;-80
2021/12/07 11:46:25;;;;;;;4.23;2.10;;;3.90;99.90;;;;;;5059817;28;20044;-80
2021/12/07 11:49:05;;;;;;;6.83;2.20;;;3.90;99.90;;;;;;5028629;28;20032;-78
2021/12/07 11:51:31;;;;;;;3.50;1.87;;;3.90;99.90;;;;;;5034692;28;20030;-82
2021/12/07 11:53:57;;;;;;;4.40;1.73;;;3.90;99.90;;;;;;5023484;28;20114;-82
2021/12/07 11:56:22;;;;;;;4.33;1.80;;;3.80;99.90;;;;;;5024967;28;20024;-82
2021/12/07 11:58:49;;;;;;;5.23;1.93;;;3.70;99.90;;;;;;5019067;28;20044;-74
2021/12/07 12:01:14;;;;;;;4.83;2.10;;;3.70;99.90;;;;;;5010179;28;20110;-74
2021/12/07 12:03:40;;;;;;;3.40;1.70;;;3.80;99.90;;;;;;5033617;28;20062;-74
2021/12/07 12:06:07;;;;;;;4.67;1.90;;;3.90;99.90;;;;;;4992898;28;20058;-74
2021/12/07 12:08:32;;;;;;;4.50;2.17;;;3.90;99.90;;;;;;5000332;28;20031;-74
2021/12/07 12:11:19;;;;;;;4.20;1.80;;;3.90;99.90;;;;;;5046152;28;20050;-82
2021/12/07 12:13:56;;;;;;;5.83;1.87;;;4.00;99.90;;;;;;5018489;28;20465;-82
2021/12/07 12:16:25;;;;;;;4.97;2.00;;;4.00;99.90;;;;;;5013881;28;20032;-82
2021/12/07 12:19:16;;;;;;;4.80;2.10;;;4.00;99.90;;;;;;5003663;28;20066;-83
2021/12/07 12:21:53;;;;;;;4.50;1.70;;;3.90;99.90;;;;;;4993119;28;20078;-79
2021/12/07 12:24:39;;;;;;;3.73;1.70;;;3.80;99.90;;;;;;5088467;28;20409;-80
2021/12/07 12:27:27;;;;;;;3.43;2.07;;;3.80;99.90;;;;;;5074104;28;20108;-79
2021/12/07 12:29:54;;;;;;;6.07;2.27;;;3.90;99.90;;;;;;5066286;28;20460;-80
2021/12/07 12:32:35;;;;;;;5.73;2.00;;;4.20;99.90;;;;;;4992013;28;20054;-80
2021/12/07 12:35:03;;;;;;;4.80;1.80;;;4.20;99.90;;;;;;4991999;28;20026;-80
2021/12/07 12:37:31;;;;;;;5.50;2.07;;;4.50;99.90;;;;;;5031160;28;20050;-81
2021/12/07 12:40:08;;;;;;;5.97;2.77;;;4.50;99.90;;;;;;5073644;28;20021;-81
2021/12/07 12:42:43;;;;;;;5.33;1.70;;;4.60;99.90;;;;;;5073454;28;20485;-80
2021/12/07 12:45:23;;;;;;;4.97;2.17;;;4.50;99.90;;;;;;5069415;28;20056;-80
2021/12/07 12:48:16;;;;;;;5.07;2.13;;;4.40;99.90;;;;;;4988055;28;20471;-80
2021/12/07 12:50:53;;;;;;;6.23;2.13;;;4.30;99.90;;;;;;4986694;28;20395;-81
2021/12/07 12:53:34;;;;;;;5.27;2.00;;;4.40;99.90;;;;;;4985012;28;20401;-81
2021/12/07 12:56:10;;;;;;;8.17;2.13;;;4.30;99.90;;;;;;5005685;28;20026;-80
2021/12/07 12:58:42;;;;;;;4.83;1.67;;;4.30;99.90;;;;;;5049131;28;20018;-81
2021/12/07 13:01:13;;;;;;;5.37;1.70;;;4.40;99.90;;;;;;5050292;28;20031;-81
2021/12/07 13:04:01;;;;;;;3.97;1.60;;;4.30;99.90;;;;;;5061997;28;20028;-80
2021/12/07 13:06:33;;;;;;;7.57;1.80;;;4.30;99.90;;;;;;4975300;28;20117;-80
2021/12/07 13:09:09;;;;;;;6.60;1.73;;;4.30;99.90;;;;;;5001845;28;20037;-81
2021/12/07 13:11:46;;;;;;;3.83;1.60;;;4.20;99.90;;;;;;5003309;28;20035;-78
2021/12/07 13:14:21;;;;;;;4.93;1.80;;;4.10;99.90;;;;;;4991471;28;20115;-75
2021/12/07 13:17:08;;;;;;;5.75;2.42;;;4.10;99.90;;;;;;5049360;28;20033;-80
2021/12/07 13:20:00;;;;;;;9.17;1.97;;;3.90;99.90;;;;;;5022452;28;20510;-80
2021/12/07 13:22:37;;;;;;;6.67;1.40;;;3.80;99.90;;;;;;5010901;28;20032;-80
2021/12/07 13:25:08;;;;;;;5.50;1.87;;;3.70;99.90;;;;;;5014338;28;20023;-82
2021/12/07 13:27:35;;;;;;;5.57;1.90;;;3.70;99.90;;;;;;5006239;28;20034;-77
2021/12/07 13:30:03;;;;;;;5.80;2.07;;;3.60;99.90;;;;;;5007601;28;20042;-76
2021/12/07 13:32:28;;;;;;;5.43;1.97;;;3.50;99.90;;;;;;5010997;28;20055;-76
2021/12/07 13:35:04;;;;;;;4.03;1.80;;;3.50;99.90;;;;;;5004521;28;20147;-76
2021/12/07 13:37:49;;;;;;;5.07;2.10;;;3.50;99.90;;;;;;5006259;28;20031;-82
2021/12/07 13:40:23;;;;;;;4.90;1.75;;;3.40;99.90;;;;;;5006077;28;20167;-82
2021/12/07 13:42:52;;;;;;;3.17;1.60;;;3.40;99.90;;;;;;5047243;28;20034;-75
2021/12/07 13:45:19;;;;;;;5.43;1.73;;;3.50;99.90;;;;;;5001099;28;20474;-75
2021/12/07 13:47:51;;;;;;;5.00;1.80;;;3.50;99.90;;;;;;5079744;28;20472;-75
2021/12/07 13:50:25;;;;;;;4.33;1.87;;;3.70;99.90;;;;;;5002557;28;20030;-75
2021/12/07 13:52:53;;;;;;;8.53;2.30;;;3.70;99.90;;;;;;5024652;28;20360;-80
2021/12/07 13:55:36;;;;;;;4.40;1.80;;;3.70;99.90;;;;;;5016395;28;20099;-82
2021/12/07 13:58:03;;;;;;;10.07;2.77;;;3.70;99.90;;;;;;5016538;28;20480;-82
2021/12/07 14:00:37;;;;;;;6.70;2.53;;;3.80;99.90;;;;;;5005933;28;20109;-82
2021/12/07 14:03:06;;;;;;;5.90;1.87;;;3.70;99.90;;;;;;5048595;28;20134;-82
2021/12/07 14:05:38;;;;;;;5.93;2.00;;;3.60;99.90;;;;;;5000223;28;20650;-75
2021/12/07 14:08:07;;;;;;;4.63;1.73;;;3.50;99.90;;;;;;5019802;28;20046;-75
2021/12/07 14:10:43;;;;;;;6.40;2.00;;;3.50;99.90;;;;;;5051966;28;20025;-75
2021/12/07 14:13:09;;;;;;;7.40;2.30;;;3.50;99.90;;;;;;5007974;28;20030;-75
2021/12/07 14:15:37;;;;;;;3.23;1.60;;;3.50;99.90;;;;;;5065032;28;20026;-75
2021/12/07 14:18:05;;;;;;;8.87;1.87;;;3.50;99.90;;;;;;5005980;28;20031;-81
2021/12/07 14:20:40;;;;;;;7.17;2.00;;;3.40;99.90;;;;;;5015028;28;20442;-76
2021/12/07 14:23:27;;;;;;;8.10;2.55;;;3.40;99.90;;;;;;5018454;28;20145;-77
2021/12/07 14:26:14;;;;;;;5.67;1.83;;;3.30;99.90;;;;;;5021673;28;20041;-81
2021/12/07 14:28:46;;;;;;;5.87;2.53;;;3.30;99.90;;;;;;5024396;28;20534;-80
2021/12/07 14:31:16;;;;;;;5.73;2.10;;;3.30;99.90;;;;;;5023762;28;20033;-76
2021/12/07 14:33:52;;;;;;;9.97;2.53;;;3.30;99.90;;;;;;5014134;28;20039;-81
2021/12/07 14:36:33;;;;;;;6.47;1.70;;;3.20;99.90;;;;;;5044813;28;20129;-81